createdAt,value
2019-03-28T00:01:01.192Z,101025.27
2019-03-28T00:07:05.837Z,101021.53
2019-03-28T00:13:10.559Z,101023.48
2019-03-28T00:19:15.178Z,101019.63
2019-03-28T00:25:20.181Z,101018.13
2019-03-28T00:31:24.755Z,101018.29
2019-03-28T00:37:29.326Z,101014.61
2019-03-28T00:43:34.009Z,101010.47
2019-03-28T00:49:38.589Z,101002.22
2019-03-28T00:55:43.244Z,101017.13
2019-03-28T01:01:47.918Z,101013.55
2019-03-28T01:07:52.583Z,101004.98
2019-03-28T01:13:57.158Z,101010.75
2019-03-28T01:20:01.767Z,101005.46
2019-03-28T01:26:06.442Z,100995.38
2019-03-28T01:32:11.087Z,100996.59
2019-03-28T01:38:15.753Z,100985.26
2019-03-28T01:44:20.328Z,100985.48
2019-03-28T01:50:24.950Z,100985.44
2019-03-28T01:56:29.519Z,100979.23
2019-03-28T02:02:34.175Z,100982.30
2019-03-28T02:08:38.844Z,100975.72
2019-03-28T02:14:43.433Z,100987.47
2019-03-28T02:20:48.046Z,100990.73
2019-03-28T02:26:52.620Z,100990.20
2019-03-28T02:32:57.208Z,100989.42
2019-03-28T02:39:01.818Z,100992.44
2019-03-28T02:45:08.119Z,100998.55
2019-03-28T02:51:12.745Z,100995.87
2019-03-28T02:57:17.347Z,100996.12
2019-03-28T03:03:21.947Z,100997.11
2019-03-28T03:09:26.562Z,101006.53
2019-03-28T03:15:31.286Z,101013.78
2019-03-28T03:21:36.054Z,101011.04
2019-03-28T03:27:56.163Z,101021.43
2019-03-28T03:33:47.336Z,101025.31
2019-03-28T03:39:51.951Z,101030.48
2019-03-28T03:45:56.540Z,101035.41
2019-03-28T03:52:01.178Z,101039.06
2019-03-28T03:58:15.617Z,101044.91
2019-03-28T04:04:12.221Z,101036.86
2019-03-28T04:10:16.817Z,101045.00
2019-03-28T04:16:21.451Z,101046.47
2019-03-28T04:22:26.034Z,101044.06
2019-03-28T04:28:32.574Z,101043.57
2019-03-28T04:34:36.959Z,101040.27
2019-03-28T04:40:41.619Z,101046.86
2019-03-28T04:46:46.190Z,101049.47
2019-03-28T04:52:52.903Z,101056.66
2019-03-28T04:58:57.133Z,101055.47
2019-03-28T05:05:01.695Z,101054.34
2019-03-28T05:11:07.300Z,101058.50
2019-03-28T05:17:11.898Z,101068.34
2019-03-28T05:23:16.480Z,101061.87
2019-03-28T05:29:22.052Z,101061.01
2019-03-28T05:35:26.645Z,101058.08
2019-03-28T05:41:31.232Z,101059.67
2019-03-28T05:47:35.822Z,101072.35
2019-03-28T05:53:40.465Z,101079.97
2019-03-28T05:59:45.370Z,101074.88
2019-03-28T06:05:50.097Z,101082.97
2019-03-28T06:11:54.832Z,101093.45
2019-03-28T06:17:59.454Z,101098.67
2019-03-28T06:24:04.049Z,101111.52
2019-03-28T06:30:10.435Z,101113.72
2019-03-28T06:36:15.015Z,101114.31
2019-03-28T06:42:19.617Z,101117.77
2019-03-28T06:48:24.208Z,101126.53
2019-03-28T06:54:28.810Z,101129.36
2019-03-28T07:00:33.485Z,101132.98
2019-03-28T07:06:38.095Z,101132.83
2019-03-28T07:12:42.687Z,101126.65
2019-03-28T07:18:47.366Z,101126.08
2019-03-28T07:24:51.962Z,101127.53
2019-03-28T07:30:56.562Z,101119.28
2019-03-28T07:37:01.136Z,101118.98
2019-03-28T07:43:05.792Z,101117.17
2019-03-28T07:49:10.375Z,101103.16
2019-03-28T07:55:16.697Z,101111.47
2019-03-28T08:01:21.458Z,101112.86
2019-03-28T08:07:26.054Z,101111.36
2019-03-28T08:13:30.687Z,101116.17
2019-03-28T08:19:35.274Z,101114.13
2019-03-28T08:25:40.069Z,101127.79
2019-03-28T08:31:46.590Z,101138.09
2019-03-28T08:37:51.324Z,101150.53
2019-03-28T08:43:55.924Z,101150.44
2019-03-28T08:50:00.528Z,101159.23
2019-03-28T08:56:05.118Z,101161.13
2019-03-28T09:02:09.770Z,101161.86
2019-03-28T09:08:14.364Z,101161.80
2019-03-28T09:14:18.958Z,101159.79
2019-03-28T09:20:23.618Z,101148.69
2019-03-28T09:26:28.287Z,101140.64
2019-03-28T09:32:33.045Z,101141.78
2019-03-28T09:38:37.639Z,101135.64
2019-03-28T09:44:42.225Z,101127.67
2019-03-28T09:50:46.817Z,101133.36
2019-03-28T09:56:51.430Z,101124.73
2019-03-28T10:02:56.079Z,101119.52
2019-03-28T10:09:00.738Z,101132.38
2019-03-28T10:15:08.050Z,101140.76
2019-03-28T10:21:12.716Z,101126.16
2019-03-28T10:27:19.195Z,101133.05
2019-03-28T10:33:24.538Z,101128.53
2019-03-28T10:39:29.421Z,101120.02
2019-03-28T10:45:34.138Z,101119.91
2019-03-28T10:51:38.807Z,101123.53
2019-03-28T10:57:43.437Z,101114.23
2019-03-28T11:03:48.809Z,101114.68
2019-03-28T11:09:53.408Z,101113.67
2019-03-28T11:15:58.019Z,101111.60
2019-03-28T11:22:02.605Z,101117.53
2019-03-28T11:28:07.365Z,101113.75
2019-03-28T11:34:12.067Z,101123.50
2019-03-28T11:40:16.895Z,101117.03
2019-03-28T11:46:21.493Z,101117.48
2019-03-28T11:52:26.075Z,101124.87
2019-03-28T11:58:30.690Z,101128.23
2019-03-28T12:04:38.541Z,101120.02
2019-03-28T12:10:41.675Z,101124.87
2019-03-28T12:16:46.273Z,101127.30
2019-03-28T12:22:55.754Z,101128.97
2019-03-28T12:28:58.782Z,101126.34
2019-03-28T12:35:03.371Z,101128.63
2019-03-28T12:41:08.041Z,101127.89
2019-03-28T12:47:12.706Z,101134.03
2019-03-28T12:53:17.300Z,101136.27
2019-03-28T12:59:21.892Z,101143.09
2019-03-28T13:05:26.482Z,101138.41
2019-03-28T13:11:31.069Z,101143.95
2019-03-28T13:17:35.680Z,101140.45
2019-03-28T13:23:40.364Z,101141.87
2019-03-28T13:29:44.975Z,101137.23
2019-03-28T13:35:49.547Z,101137.59
2019-03-28T13:41:54.192Z,101138.92
2019-03-28T13:47:58.753Z,101133.41
2019-03-28T13:54:03.307Z,101131.87
2019-03-28T14:00:10.678Z,101117.01
2019-03-28T14:06:15.310Z,101114.11
2019-03-28T14:12:23.332Z,101104.22
2019-03-28T14:18:27.187Z,101102.16
2019-03-28T14:24:31.757Z,101104.98
2019-03-28T14:30:39.408Z,101102.73
2019-03-28T14:36:42.619Z,101100.80
2019-03-28T14:42:47.169Z,101107.36
2019-03-28T14:48:51.780Z,101114.36
2019-03-28T14:54:56.474Z,101117.48
2019-03-28T15:01:01.108Z,101116.70
2019-03-28T15:07:07.373Z,101119.55
2019-03-28T15:13:12.186Z,101113.30
2019-03-28T15:19:16.765Z,101122.75
2019-03-28T15:25:21.399Z,101130.66
2019-03-28T15:31:26.042Z,101125.09
2019-03-28T15:37:30.624Z,101119.91
2019-03-28T15:43:35.269Z,101114.35
2019-03-28T15:49:39.888Z,101119.59
2019-03-28T15:55:44.472Z,101124.29
2019-03-28T16:01:49.107Z,101126.50
2019-03-28T16:07:59.295Z,101131.53
2019-03-28T16:14:03.418Z,101137.27
2019-03-28T16:20:09.282Z,101122.46
2019-03-28T16:26:13.909Z,101124.81
2019-03-28T16:32:18.541Z,101122.95
2019-03-28T16:38:23.098Z,101124.15
2019-03-28T16:44:27.718Z,101124.16
2019-03-28T16:50:32.290Z,101120.77
2019-03-28T16:56:36.948Z,101118.58
2019-03-28T17:02:41.768Z,101112.36
2019-03-28T17:08:46.881Z,101116.05
2019-03-28T17:14:51.801Z,101112.86
2019-03-28T17:20:57.315Z,101115.70
2019-03-28T17:27:01.959Z,101112.86
2019-03-28T17:33:06.542Z,101109.81
2019-03-28T17:39:11.118Z,101114.06
2019-03-28T17:45:15.688Z,101110.56
2019-03-28T17:51:20.323Z,101123.95
2019-03-28T17:57:24.915Z,101118.43
2019-03-28T18:03:31.360Z,101122.38
2019-03-28T18:09:35.887Z,101123.12
2019-03-28T18:15:40.707Z,101127.23
2019-03-28T18:21:46.044Z,101133.02
2019-03-28T18:27:50.753Z,101137.17
2019-03-28T18:33:55.305Z,101146.97
2019-03-28T18:39:59.858Z,101146.64
2019-03-28T18:46:04.474Z,101153.77
2019-03-28T18:52:09.170Z,101157.80
2019-03-28T18:58:13.735Z,101161.73
2019-03-28T19:04:18.297Z,101159.68
2019-03-28T19:10:23.006Z,101158.08
2019-03-28T19:16:27.592Z,101158.67
2019-03-28T19:22:32.211Z,101162.66
2019-03-28T19:28:36.765Z,101154.27
2019-03-28T19:34:41.406Z,101161.64
2019-03-28T19:40:46.039Z,101159.94
2019-03-28T19:46:50.667Z,101162.02
2019-03-28T19:52:55.297Z,101156.24
2019-03-28T19:58:59.873Z,101162.06
2019-03-28T20:05:06.215Z,101157.50
2019-03-28T20:11:10.939Z,101152.50
2019-03-28T20:17:15.755Z,101144.27
2019-03-28T20:23:20.329Z,101137.91
2019-03-28T20:29:24.938Z,101145.31
2019-03-28T20:35:29.562Z,101155.06
2019-03-28T20:41:34.180Z,101155.94
2019-03-28T20:47:40.410Z,101157.08
2019-03-28T20:53:44.990Z,101160.57
2019-03-28T20:59:49.646Z,101162.33
2019-03-28T21:05:54.326Z,101161.58
2019-03-28T21:11:58.972Z,101165.29
2019-03-28T21:18:03.622Z,101170.86
2019-03-28T21:24:08.192Z,101170.20
2019-03-28T21:30:13.220Z,101173.07
2019-03-28T21:36:29.105Z,101163.63
2019-03-28T21:42:24.070Z,101168.03
2019-03-28T21:48:28.640Z,101166.20
2019-03-28T21:54:33.264Z,101165.17
2019-03-28T22:00:37.891Z,101169.13
2019-03-28T22:06:43.407Z,101172.97
2019-03-28T22:12:48.264Z,101170.30
2019-03-28T22:18:52.905Z,101171.25
2019-03-28T22:24:57.528Z,101172.48
2019-03-28T22:31:02.144Z,101173.77
2019-03-28T22:37:06.694Z,101185.58
2019-03-28T22:43:11.246Z,101181.56
2019-03-28T22:49:15.823Z,101176.86
2019-03-28T22:55:20.391Z,101174.89
2019-03-28T23:01:25.112Z,101176.89
2019-03-28T23:07:29.670Z,101171.81
2019-03-28T23:13:34.332Z,101174.78
2019-03-28T23:19:38.888Z,101172.58
2019-03-28T23:25:43.448Z,101179.73
2019-03-28T23:31:50.655Z,101177.11
2019-03-28T23:37:54.350Z,101187.39
2019-03-28T23:43:58.913Z,101181.91
2019-03-28T23:50:03.661Z,101176.31
2019-03-28T23:56:08.208Z,101179.69
